sensor_id;sensor_type;location;lat;lon;timestamp;pressure;altitude;pressure_sealevel;temperature
8227;BMP180;4154;48.810;9.012;2023-05-01T00:00:20;97044.00;;;9.90
8227;BMP180;4154;48.810;9.012;2023-05-01T00:02:45;97037.00;;;9.80
8227;BMP180;4154;48.810;9.012;2023-05-01T00:05:11;97035.00;;;9.80
8227;BMP180;4154;48.810;9.012;2023-05-01T00:07:37;97035.00;;;9.70
8227;BMP180;4154;48.810;9.012;2023-05-01T00:10:03;97025.00;;;9.70
8227;BMP180;4154;48.810;9.012;2023-05-01T00:12:29;97034.00;;;9.70
8227;BMP180;4154;48.810;9.012;2023-05-01T00:14:55;97019.00;;;9.70
8227;BMP180;4154;48.810;9.012;2023-05-01T00:17:21;97017.00;;;9.70
8227;BMP180;4154;48.810;9.012;2023-05-01T00:19:51;97021.00;;;9.70
8227;BMP180;4154;48.810;9.012;2023-05-01T00:22:17;97015.00;;;9.70
8227;BMP180;4154;48.810;9.012;2023-05-01T00:24:43;97014.00;;;9.70
8227;BMP180;4154;48.810;9.012;2023-05-01T00:27:08;97018.00;;;9.70
8227;BMP180;4154;48.810;9.012;2023-05-01T00:29:34;97012.00;;;9.60
8227;BMP180;4154;48.810;9.012;2023-05-01T00:32:00;97011.00;;;9.50
8227;BMP180;4154;48.810;9.012;2023-05-01T00:34:25;97006.00;;;9.60
8227;BMP180;4154;48.810;9.012;2023-05-01T00:36:51;97005.00;;;9.50
8227;BMP180;4154;48.810;9.012;2023-05-01T00:39:16;97002.00;;;9.50
8227;BMP180;4154;48.810;9.012;2023-05-01T00:41:42;96997.00;;;9.50
8227;BMP180;4154;48.810;9.012;2023-05-01T00:44:08;97002.00;;;9.50
8227;BMP180;4154;48.810;9.012;2023-05-01T00:46:34;96996.00;;;9.50
8227;BMP180;4154;48.810;9.012;2023-05-01T00:49:00;96996.00;;;9.50
8227;BMP180;4154;48.810;9.012;2023-05-01T00:51:28;96996.00;;;9.50
8227;BMP180;4154;48.810;9.012;2023-05-01T00:53:54;96993.00;;;9.40
8227;BMP180;4154;48.810;9.012;2023-05-01T00:56:21;96984.00;;;9.30
8227;BMP180;4154;48.810;9.012;2023-05-01T00:58:50;96978.00;;;9.20
8227;BMP180;4154;48.810;9.012;2023-05-01T01:01:21;96984.00;;;9.20
8227;BMP180;4154;48.810;9.012;2023-05-01T01:03:48;96977.00;;;9.20
8227;BMP180;4154;48.810;9.012;2023-05-01T01:09:34;96970.00;;;9.20
8227;BMP180;4154;48.810;9.012;2023-05-01T01:15:45;96962.00;;;9.10
8227;BMP180;4154;48.810;9.012;2023-05-01T01:18:32;96954.00;;;9.20
8227;BMP180;4154;48.810;9.012;2023-05-01T01:21:11;96958.00;;;9.10
8227;BMP180;4154;48.810;9.012;2023-05-01T01:24:08;96952.00;;;9.10
8227;BMP180;4154;48.810;9.012;2023-05-01T01:30:33;96954.00;;;9.00
8227;BMP180;4154;48.810;9.012;2023-05-01T01:33:36;96949.00;;;9.00
8227;BMP180;4154;48.810;9.012;2023-05-01T01:36:14;96944.00;;;9.00
8227;BMP180;4154;48.810;9.012;2023-05-01T01:38:54;96957.00;;;9.00
8227;BMP180;4154;48.810;9.012;2023-05-01T01:41:32;96949.00;;;9.00
8227;BMP180;4154;48.810;9.012;2023-05-01T01:44:14;96948.00;;;9.10
8227;BMP180;4154;48.810;9.012;2023-05-01T01:46:47;96948.00;;;9.20
8227;BMP180;4154;48.810;9.012;2023-05-01T01:49:22;96948.00;;;9.20
8227;BMP180;4154;48.810;9.012;2023-05-01T01:51:51;96958.00;;;9.20
8227;BMP180;4154;48.810;9.012;2023-05-01T01:54:30;96942.00;;;9.20
8227;BMP180;4154;48.810;9.012;2023-05-01T01:56:59;96943.00;;;9.20
8227;BMP180;4154;48.810;9.012;2023-05-01T01:59:33;96933.00;;;9.20
8227;BMP180;4154;48.810;9.012;2023-05-01T02:02:00;96942.00;;;9.20
8227;BMP180;4154;48.810;9.012;2023-05-01T02:04:28;96932.00;;;9.20
8227;BMP180;4154;48.810;9.012;2023-05-01T02:06:55;96927.00;;;9.30
8227;BMP180;4154;48.810;9.012;2023-05-01T02:09:25;96923.00;;;9.30
8227;BMP180;4154;48.810;9.012;2023-05-01T02:11:53;96922.00;;;9.30
8227;BMP180;4154;48.810;9.012;2023-05-01T02:14:25;96917.00;;;9.40
8227;BMP180;4154;48.810;9.012;2023-05-01T02:16:52;96923.00;;;9.40
8227;BMP180;4154;48.810;9.012;2023-05-01T02:19:18;96920.00;;;9.40
8227;BMP180;4154;48.810;9.012;2023-05-01T02:21:46;96918.00;;;9.40
8227;BMP180;4154;48.810;9.012;2023-05-01T02:24:13;96921.00;;;9.40
8227;BMP180;4154;48.810;9.012;2023-05-01T02:27:02;96903.00;;;9.40
8227;BMP180;4154;48.810;9.012;2023-05-01T02:29:30;96921.00;;;9.40
8227;BMP180;4154;48.810;9.012;2023-05-01T02:31:56;96906.00;;;9.40
8227;BMP180;4154;48.810;9.012;2023-05-01T02:34:22;96911.00;;;9.40
8227;BMP180;4154;48.810;9.012;2023-05-01T02:36:48;96906.00;;;9.40
8227;BMP180;4154;48.810;9.012;2023-05-01T02:39:13;96911.00;;;9.40
8227;BMP180;4154;48.810;9.012;2023-05-01T02:41:40;96912.00;;;9.40
8227;BMP180;4154;48.810;9.012;2023-05-01T02:44:08;96905.00;;;9.30
8227;BMP180;4154;48.810;9.012;2023-05-01T02:46:36;96903.00;;;9.30
8227;BMP180;4154;48.810;9.012;2023-05-01T02:49:04;96907.00;;;9.30
8227;BMP180;4154;48.810;9.012;2023-05-01T02:51:31;96894.00;;;9.30
8227;BMP180;4154;48.810;9.012;2023-05-01T02:53:58;96889.00;;;9.30
8227;BMP180;4154;48.810;9.012;2023-05-01T02:56:25;96894.00;;;9.30
8227;BMP180;4154;48.810;9.012;2023-05-01T02:58:54;96901.00;;;9.30
8227;BMP180;4154;48.810;9.012;2023-05-01T03:01:20;96888.00;;;9.30
8227;BMP180;4154;48.810;9.012;2023-05-01T03:03:46;96887.00;;;9.30
8227;BMP180;4154;48.810;9.012;2023-05-01T03:06:12;96888.00;;;9.30
8227;BMP180;4154;48.810;9.012;2023-05-01T03:08:40;96888.00;;;9.40
8227;BMP180;4154;48.810;9.012;2023-05-01T03:11:06;96884.00;;;9.30
8227;BMP180;4154;48.810;9.012;2023-05-01T03:13:33;96887.00;;;9.30
8227;BMP180;4154;48.810;9.012;2023-05-01T03:15:59;96889.00;;;9.30
8227;BMP180;4154;48.810;9.012;2023-05-01T03:18:25;96884.00;;;9.30
8227;BMP180;4154;48.810;9.012;2023-05-01T03:20:52;96884.00;;;9.30
8227;BMP180;4154;48.810;9.012;2023-05-01T03:23:18;96873.00;;;9.40
8227;BMP180;4154;48.810;9.012;2023-05-01T03:25:44;96882.00;;;9.40
8227;BMP180;4154;48.810;9.012;2023-05-01T03:28:10;96875.00;;;9.40
8227;BMP180;4154;48.810;9.012;2023-05-01T03:30:35;96883.00;;;9.30
8227;BMP180;4154;48.810;9.012;2023-05-01T03:33:02;96879.00;;;9.30
8227;BMP180;4154;48.810;9.012;2023-05-01T03:35:27;96878.00;;;9.20
8227;BMP180;4154;48.810;9.012;2023-05-01T03:37:54;96873.00;;;9.20
8227;BMP180;4154;48.810;9.012;2023-05-01T03:40:20;96872.00;;;9.20
8227;BMP180;4154;48.810;9.012;2023-05-01T03:42:45;96874.00;;;9.20
8227;BMP180;4154;48.810;9.012;2023-05-01T03:45:11;96875.00;;;9.30
8227;BMP180;4154;48.810;9.012;2023-05-01T03:47:37;96864.00;;;9.30
8227;BMP180;4154;48.810;9.012;2023-05-01T03:50:03;96871.00;;;9.30
8227;BMP180;4154;48.810;9.012;2023-05-01T03:52:29;96867.00;;;9.30
8227;BMP180;4154;48.810;9.012;2023-05-01T03:54:55;96858.00;;;9.30
8227;BMP180;4154;48.810;9.012;2023-05-01T03:57:21;96866.00;;;9.20
8227;BMP180;4154;48.810;9.012;2023-05-01T03:59:48;96872.00;;;9.20
8227;BMP180;4154;48.810;9.012;2023-05-01T04:02:14;96864.00;;;9.20
8227;BMP180;4154;48.810;9.012;2023-05-01T04:04:41;96864.00;;;9.20
8227;BMP180;4154;48.810;9.012;2023-05-01T04:07:07;96853.00;;;9.20
8227;BMP180;4154;48.810;9.012;2023-05-01T04:09:32;96855.00;;;9.20
8227;BMP180;4154;48.810;9.012;2023-05-01T04:11:58;96859.00;;;9.30
8227;BMP180;4154;48.810;9.012;2023-05-01T04:14:24;96872.00;;;9.30
8227;BMP180;4154;48.810;9.012;2023-05-01T04:16:50;96854.00;;;9.30
8227;BMP180;4154;48.810;9.012;2023-05-01T04:19:16;96852.00;;;9.40
8227;BMP180;4154;48.810;9.012;2023-05-01T04:21:42;96858.00;;;9.40
8227;BMP180;4154;48.810;9.012;2023-05-01T04:24:08;96860.00;;;9.40
8227;BMP180;4154;48.810;9.012;2023-05-01T04:26:33;96851.00;;;9.40
8227;BMP180;4154;48.810;9.012;2023-05-01T04:29:00;96852.00;;;9.40
8227;BMP180;4154;48.810;9.012;2023-05-01T04:31:25;96853.00;;;9.40
8227;BMP180;4154;48.810;9.012;2023-05-01T04:33:52;96851.00;;;9.50
8227;BMP180;4154;48.810;9.012;2023-05-01T04:36:18;96852.00;;;9.50
8227;BMP180;4154;48.810;9.012;2023-05-01T04:38:43;96864.00;;;9.50
8227;BMP180;4154;48.810;9.012;2023-05-01T04:41:09;96871.00;;;9.60
8227;BMP180;4154;48.810;9.012;2023-05-01T04:43:35;96867.00;;;9.60
8227;BMP180;4154;48.810;9.012;2023-05-01T04:46:03;96861.00;;;9.60
8227;BMP180;4154;48.810;9.012;2023-05-01T04:48:29;96865.00;;;9.60
8227;BMP180;4154;48.810;9.012;2023-05-01T04:50:54;96863.00;;;9.60
8227;BMP180;4154;48.810;9.012;2023-05-01T04:53:20;96851.00;;;9.60
8227;BMP180;4154;48.810;9.012;2023-05-01T04:55:46;96860.00;;;9.60
8227;BMP180;4154;48.810;9.012;2023-05-01T04:58:12;96863.00;;;9.70
8227;BMP180;4154;48.810;9.012;2023-05-01T05:00:37;96859.00;;;9.70
8227;BMP180;4154;48.810;9.012;2023-05-01T05:03:03;96869.00;;;9.70
8227;BMP180;4154;48.810;9.012;2023-05-01T05:05:29;96866.00;;;9.60
8227;BMP180;4154;48.810;9.012;2023-05-01T05:07:54;96862.00;;;9.60
8227;BMP180;4154;48.810;9.012;2023-05-01T05:10:20;96860.00;;;9.60
8227;BMP180;4154;48.810;9.012;2023-05-01T05:12:46;96871.00;;;9.60
8227;BMP180;4154;48.810;9.012;2023-05-01T05:15:12;96869.00;;;9.50
8227;BMP180;4154;48.810;9.012;2023-05-01T05:17:37;96870.00;;;9.50
8227;BMP180;4154;48.810;9.012;2023-05-01T05:20:04;96867.00;;;9.60
8227;BMP180;4154;48.810;9.012;2023-05-01T05:22:30;96868.00;;;9.50
8227;BMP180;4154;48.810;9.012;2023-05-01T05:24:55;96871.00;;;9.50
8227;BMP180;4154;48.810;9.012;2023-05-01T05:27:24;96871.00;;;9.60
8227;BMP180;4154;48.810;9.012;2023-05-01T05:29:50;96876.00;;;9.60
8227;BMP180;4154;48.810;9.012;2023-05-01T05:32:16;96866.00;;;9.60
8227;BMP180;4154;48.810;9.012;2023-05-01T05:34:41;96871.00;;;9.60
8227;BMP180;4154;48.810;9.012;2023-05-01T05:37:07;96866.00;;;9.70
8227;BMP180;4154;48.810;9.012;2023-05-01T05:39:33;96869.00;;;9.70
8227;BMP180;4154;48.810;9.012;2023-05-01T05:41:59;96876.00;;;9.70
8227;BMP180;4154;48.810;9.012;2023-05-01T05:44:25;96871.00;;;9.80
8227;BMP180;4154;48.810;9.012;2023-05-01T05:46:50;96868.00;;;9.80
8227;BMP180;4154;48.810;9.012;2023-05-01T05:49:16;96871.00;;;9.80
8227;BMP180;4154;48.810;9.012;2023-05-01T05:51:42;96869.00;;;9.70
8227;BMP180;4154;48.810;9.012;2023-05-01T05:54:07;96866.00;;;9.80
8227;BMP180;4154;48.810;9.012;2023-05-01T05:56:33;96865.00;;;9.70
8227;BMP180;4154;48.810;9.012;2023-05-01T05:58:58;96866.00;;;9.70
8227;BMP180;4154;48.810;9.012;2023-05-01T06:01:28;96864.00;;;9.70
8227;BMP180;4154;48.810;9.012;2023-05-01T06:03:53;96868.00;;;9.70
8227;BMP180;4154;48.810;9.012;2023-05-01T06:06:19;96871.00;;;9.80
8227;BMP180;4154;48.810;9.012;2023-05-01T06:08:45;96874.00;;;9.80
8227;BMP180;4154;48.810;9.012;2023-05-01T06:11:11;96879.00;;;9.90
8227;BMP180;4154;48.810;9.012;2023-05-01T06:13:36;96874.00;;;9.90
8227;BMP180;4154;48.810;9.012;2023-05-01T06:16:03;96868.00;;;10.00
8227;BMP180;4154;48.810;9.012;2023-05-01T06:18:29;96874.00;;;10.00
8227;BMP180;4154;48.810;9.012;2023-05-01T06:20:55;96867.00;;;10.00
8227;BMP180;4154;48.810;9.012;2023-05-01T06:23:21;96871.00;;;10.10
8227;BMP180;4154;48.810;9.012;2023-05-01T06:25:46;96867.00;;;10.10
8227;BMP180;4154;48.810;9.012;2023-05-01T06:28:13;96871.00;;;10.20
8227;BMP180;4154;48.810;9.012;2023-05-01T06:30:39;96870.00;;;10.20
8227;BMP180;4154;48.810;9.012;2023-05-01T06:33:05;96872.00;;;10.30
8227;BMP180;4154;48.810;9.012;2023-05-01T06:35:31;96873.00;;;10.30
8227;BMP180;4154;48.810;9.012;2023-05-01T06:37:56;96871.00;;;10.30
8227;BMP180;4154;48.810;9.012;2023-05-01T06:40:22;96878.00;;;10.30
8227;BMP180;4154;48.810;9.012;2023-05-01T06:42:48;96876.00;;;10.40
8227;BMP180;4154;48.810;9.012;2023-05-01T06:45:13;96882.00;;;10.40
8227;BMP180;4154;48.810;9.012;2023-05-01T06:47:39;96876.00;;;10.40
8227;BMP180;4154;48.810;9.012;2023-05-01T06:50:05;96878.00;;;10.40
8227;BMP180;4154;48.810;9.012;2023-05-01T06:52:32;96884.00;;;10.50
8227;BMP180;4154;48.810;9.012;2023-05-01T06:54:58;96887.00;;;10.50
8227;BMP180;4154;48.810;9.012;2023-05-01T06:57:24;96888.00;;;10.60
8227;BMP180;4154;48.810;9.012;2023-05-01T06:59:50;96884.00;;;10.70
8227;BMP180;4154;48.810;9.012;2023-05-01T07:02:15;96897.00;;;10.80
8227;BMP180;4154;48.810;9.012;2023-05-01T07:04:41;96886.00;;;10.80
8227;BMP180;4154;48.810;9.012;2023-05-01T07:07:09;96891.00;;;10.90
8227;BMP180;4154;48.810;9.012;2023-05-01T07:09:34;96892.00;;;10.90
8227;BMP180;4154;48.810;9.012;2023-05-01T07:12:00;96892.00;;;11.00
8227;BMP180;4154;48.810;9.012;2023-05-01T07:14:27;96898.00;;;11.10
8227;BMP180;4154;48.810;9.012;2023-05-01T07:16:53;96895.00;;;11.20
8227;BMP180;4154;48.810;9.012;2023-05-01T07:19:20;96898.00;;;11.30
8227;BMP180;4154;48.810;9.012;2023-05-01T07:21:45;96888.00;;;11.40
8227;BMP180;4154;48.810;9.012;2023-05-01T07:24:11;96892.00;;;11.40
8227;BMP180;4154;48.810;9.012;2023-05-01T07:26:38;96886.00;;;11.50
8227;BMP180;4154;48.810;9.012;2023-05-01T07:29:04;96879.00;;;11.50
8227;BMP180;4154;48.810;9.012;2023-05-01T07:31:30;96879.00;;;11.50
8227;BMP180;4154;48.810;9.012;2023-05-01T07:33:55;96885.00;;;11.50
8227;BMP180;4154;48.810;9.012;2023-05-01T07:36:21;96877.00;;;11.60
8227;BMP180;4154;48.810;9.012;2023-05-01T07:38:48;96879.00;;;11.60
8227;BMP180;4154;48.810;9.012;2023-05-01T07:41:14;96877.00;;;11.70
8227;BMP180;4154;48.810;9.012;2023-05-01T07:43:40;96874.00;;;11.70
8227;BMP180;4154;48.810;9.012;2023-05-01T07:46:06;96869.00;;;11.80
8227;BMP180;4154;48.810;9.012;2023-05-01T07:48:32;96871.00;;;11.80
8227;BMP180;4154;48.810;9.012;2023-05-01T07:51:01;96866.00;;;11.90
8227;BMP180;4154;48.810;9.012;2023-05-01T07:53:27;96861.00;;;11.90
8227;BMP180;4154;48.810;9.012;2023-05-01T07:55:52;96867.00;;;11.90
8227;BMP180;4154;48.810;9.012;2023-05-01T07:58:18;96867.00;;;12.00
8227;BMP180;4154;48.810;9.012;2023-05-01T08:00:43;96861.00;;;12.00
8227;BMP180;4154;48.810;9.012;2023-05-01T08:03:10;96862.00;;;12.10
8227;BMP180;4154;48.810;9.012;2023-05-01T08:05:40;96864.00;;;12.20
8227;BMP180;4154;48.810;9.012;2023-05-01T08:08:06;96862.00;;;12.20
8227;BMP180;4154;48.810;9.012;2023-05-01T08:10:31;96868.00;;;12.30
8227;BMP180;4154;48.810;9.012;2023-05-01T08:12:57;96875.00;;;12.40
8227;BMP180;4154;48.810;9.012;2023-05-01T08:15:23;96875.00;;;12.50
8227;BMP180;4154;48.810;9.012;2023-05-01T08:17:49;96872.00;;;12.60
8227;BMP180;4154;48.810;9.012;2023-05-01T08:20:15;96870.00;;;12.70
8227;BMP180;4154;48.810;9.012;2023-05-01T08:22:41;96863.00;;;12.70
8227;BMP180;4154;48.810;9.012;2023-05-01T08:25:07;96868.00;;;12.80
8227;BMP180;4154;48.810;9.012;2023-05-01T08:27:33;96867.00;;;12.90
8227;BMP180;4154;48.810;9.012;2023-05-01T08:29:59;96868.00;;;12.90
8227;BMP180;4154;48.810;9.012;2023-05-01T08:32:25;96862.00;;;13.00
8227;BMP180;4154;48.810;9.012;2023-05-01T08:34:51;96862.00;;;13.10
8227;BMP180;4154;48.810;9.012;2023-05-01T08:37:17;96861.00;;;13.00
8227;BMP180;4154;48.810;9.012;2023-05-01T08:39:43;96856.00;;;13.10
8227;BMP180;4154;48.810;9.012;2023-05-01T08:42:09;96855.00;;;13.00
8227;BMP180;4154;48.810;9.012;2023-05-01T08:44:37;96851.00;;;13.20
8227;BMP180;4154;48.810;9.012;2023-05-01T08:47:17;96853.00;;;13.20
8227;BMP180;4154;48.810;9.012;2023-05-01T08:49:44;96857.00;;;13.30
8227;BMP180;4154;48.810;9.012;2023-05-01T08:52:12;96856.00;;;13.40
8227;BMP180;4154;48.810;9.012;2023-05-01T08:54:43;96857.00;;;13.40
8227;BMP180;4154;48.810;9.012;2023-05-01T08:57:11;96855.00;;;13.50
8227;BMP180;4154;48.810;9.012;2023-05-01T08:59:39;96855.00;;;13.60
8227;BMP180;4154;48.810;9.012;2023-05-01T09:02:08;96850.00;;;13.60
8227;BMP180;4154;48.810;9.012;2023-05-01T09:04:39;96864.00;;;13.70
8227;BMP180;4154;48.810;9.012;2023-05-01T09:07:05;96863.00;;;13.80
8227;BMP180;4154;48.810;9.012;2023-05-01T09:09:32;96867.00;;;13.80
8227;BMP180;4154;48.810;9.012;2023-05-01T09:12:26;96868.00;;;13.90
8227;BMP180;4154;48.810;9.012;2023-05-01T09:14:55;96866.00;;;14.00
8227;BMP180;4154;48.810;9.012;2023-05-01T09:17:22;96858.00;;;14.00
8227;BMP180;4154;48.810;9.012;2023-05-01T09:19:52;96871.00;;;14.10
8227;BMP180;4154;48.810;9.012;2023-05-01T09:22:18;96866.00;;;14.20
8227;BMP180;4154;48.810;9.012;2023-05-01T09:24:44;96860.00;;;14.20
8227;BMP180;4154;48.810;9.012;2023-05-01T09:27:12;96869.00;;;14.20
8227;BMP180;4154;48.810;9.012;2023-05-01T09:29:47;96861.00;;;14.10
8227;BMP180;4154;48.810;9.012;2023-05-01T09:32:24;96866.00;;;14.30
8227;BMP180;4154;48.810;9.012;2023-05-01T09:34:54;96864.00;;;14.20
8227;BMP180;4154;48.810;9.012;2023-05-01T09:37:32;96860.00;;;14.30
8227;BMP180;4154;48.810;9.012;2023-05-01T09:40:12;96861.00;;;14.30
8227;BMP180;4154;48.810;9.012;2023-05-01T09:42:50;96863.00;;;14.40
8227;BMP180;4154;48.810;9.012;2023-05-01T09:45:17;96866.00;;;14.40
8227;BMP180;4154;48.810;9.012;2023-05-01T09:47:45;96864.00;;;14.50
8227;BMP180;4154;48.810;9.012;2023-05-01T09:50:31;96867.00;;;14.40
8227;BMP180;4154;48.810;9.012;2023-05-01T09:53:01;96865.00;;;14.40
8227;BMP180;4154;48.810;9.012;2023-05-01T09:55:29;96869.00;;;14.40
8227;BMP180;4154;48.810;9.012;2023-05-01T09:57:55;96875.00;;;14.40
8227;BMP180;4154;48.810;9.012;2023-05-01T10:00:20;96871.00;;;14.40
8227;BMP180;4154;48.810;9.012;2023-05-01T10:02:48;96876.00;;;14.40
8227;BMP180;4154;48.810;9.012;2023-05-01T10:05:14;96873.00;;;14.40
8227;BMP180;4154;48.810;9.012;2023-05-01T10:07:58;96874.00;;;14.40
8227;BMP180;4154;48.810;9.012;2023-05-01T10:10:24;96876.00;;;14.50
8227;BMP180;4154;48.810;9.012;2023-05-01T10:12:51;96879.00;;;14.50
8227;BMP180;4154;48.810;9.012;2023-05-01T10:15:17;96873.00;;;14.50
8227;BMP180;4154;48.810;9.012;2023-05-01T10:17:45;96879.00;;;14.60
8227;BMP180;4154;48.810;9.012;2023-05-01T10:20:13;96880.00;;;14.60
8227;BMP180;4154;48.810;9.012;2023-05-01T10:22:39;96881.00;;;14.60
8227;BMP180;4154;48.810;9.012;2023-05-01T10:25:10;96884.00;;;14.70
8227;BMP180;4154;48.810;9.012;2023-05-01T10:27:38;96884.00;;;14.80
8227;BMP180;4154;48.810;9.012;2023-05-01T10:30:06;96878.00;;;14.90
8227;BMP180;4154;48.810;9.012;2023-05-01T10:32:33;96879.00;;;15.10
8227;BMP180;4154;48.810;9.012;2023-05-01T10:35:30;96885.00;;;15.10
8227;BMP180;4154;48.810;9.012;2023-05-01T10:38:00;96881.00;;;15.00
8227;BMP180;4154;48.810;9.012;2023-05-01T10:45:51;96884.00;;;15.00
8227;BMP180;4154;48.810;9.012;2023-05-01T10:51:21;96882.00;;;15.00
8227;BMP180;4154;48.810;9.012;2023-05-01T10:59:04;96878.00;;;15.00
8227;BMP180;4154;48.810;9.012;2023-05-01T11:01:38;96883.00;;;15.00
8227;BMP180;4154;48.810;9.012;2023-05-01T11:07:14;96872.00;;;15.00
8227;BMP180;4154;48.810;9.012;2023-05-01T11:09:54;96876.00;;;15.10
8227;BMP180;4154;48.810;9.012;2023-05-01T11:15:30;96875.00;;;15.20
8227;BMP180;4154;48.810;9.012;2023-05-01T11:17:58;96877.00;;;15.20
8227;BMP180;4154;48.810;9.012;2023-05-01T11:22:52;96871.00;;;15.30
8227;BMP180;4154;48.810;9.012;2023-05-01T11:25:20;96867.00;;;15.30
8227;BMP180;4154;48.810;9.012;2023-05-01T11:27:52;96857.00;;;15.30
8227;BMP180;4154;48.810;9.012;2023-05-01T11:30:19;96867.00;;;15.40
8227;BMP180;4154;48.810;9.012;2023-05-01T11:32:47;96858.00;;;15.40
8227;BMP180;4154;48.810;9.012;2023-05-01T11:35:24;96870.00;;;15.40
8227;BMP180;4154;48.810;9.012;2023-05-01T11:37:53;96864.00;;;15.40
8227;BMP180;4154;48.810;9.012;2023-05-01T11:40:32;96862.00;;;15.40
8227;BMP180;4154;48.810;9.012;2023-05-01T11:43:05;96861.00;;;15.40
8227;BMP180;4154;48.810;9.012;2023-05-01T11:45:35;96854.00;;;15.40
8227;BMP180;4154;48.810;9.012;2023-05-01T11:48:01;96866.00;;;15.40
8227;BMP180;4154;48.810;9.012;2023-05-01T11:50:35;96861.00;;;15.40
8227;BMP180;4154;48.810;9.012;2023-05-01T11:53:09;96861.00;;;15.40
8227;BMP180;4154;48.810;9.012;2023-05-01T11:55:42;96857.00;;;15.40
8227;BMP180;4154;48.810;9.012;2023-05-01T11:58:09;96857.00;;;15.60
8227;BMP180;4154;48.810;9.012;2023-05-01T12:00:49;96846.00;;;15.50
8227;BMP180;4154;48.810;9.012;2023-05-01T12:03:15;96852.00;;;15.70
8227;BMP180;4154;48.810;9.012;2023-05-01T12:05:43;96853.00;;;15.80
8227;BMP180;4154;48.810;9.012;2023-05-01T12:08:18;96839.00;;;16.00
8227;BMP180;4154;48.810;9.012;2023-05-01T12:10:55;96837.00;;;16.20
8227;BMP180;4154;48.810;9.012;2023-05-01T12:13:22;96850.00;;;16.30
8227;BMP180;4154;48.810;9.012;2023-05-01T12:15:51;96849.00;;;16.20
8227;BMP180;4154;48.810;9.012;2023-05-01T12:18:18;96848.00;;;16.30
8227;BMP180;4154;48.810;9.012;2023-05-01T12:20:49;96842.00;;;16.20
8227;BMP180;4154;48.810;9.012;2023-05-01T12:23:17;96853.00;;;16.10
8227;BMP180;4154;48.810;9.012;2023-05-01T12:25:45;96853.00;;;16.00
8227;BMP180;4154;48.810;9.012;2023-05-01T12:28:18;96852.00;;;16.00
8227;BMP180;4154;48.810;9.012;2023-05-01T12:30:46;96848.00;;;15.90
8227;BMP180;4154;48.810;9.012;2023-05-01T12:33:19;96852.00;;;15.80
8227;BMP180;4154;48.810;9.012;2023-05-01T12:35:48;96849.00;;;15.80
8227;BMP180;4154;48.810;9.012;2023-05-01T12:38:21;96864.00;;;15.70
8227;BMP180;4154;48.810;9.012;2023-05-01T12:40:58;96854.00;;;15.60
8227;BMP180;4154;48.810;9.012;2023-05-01T12:43:34;96860.00;;;15.70
8227;BMP180;4154;48.810;9.012;2023-05-01T12:46:01;96866.00;;;15.60
8227;BMP180;4154;48.810;9.012;2023-05-01T12:48:29;96865.00;;;15.60
8227;BMP180;4154;48.810;9.012;2023-05-01T12:50:56;96869.00;;;15.60
8227;BMP180;4154;48.810;9.012;2023-05-01T12:53:24;96869.00;;;15.50
8227;BMP180;4154;48.810;9.012;2023-05-01T12:55:57;96868.00;;;15.50
8227;BMP180;4154;48.810;9.012;2023-05-01T12:58:36;96872.00;;;15.30
8227;BMP180;4154;48.810;9.012;2023-05-01T13:01:02;96852.00;;;15.30
8227;BMP180;4154;48.810;9.012;2023-05-01T13:03:29;96860.00;;;15.20
8227;BMP180;4154;48.810;9.012;2023-05-01T13:06:00;96882.00;;;14.90
8227;BMP180;4154;48.810;9.012;2023-05-01T13:08:30;96867.00;;;14.80
8227;BMP180;4154;48.810;9.012;2023-05-01T13:10:58;96869.00;;;14.80
8227;BMP180;4154;48.810;9.012;2023-05-01T13:13:27;96873.00;;;14.70
8227;BMP180;4154;48.810;9.012;2023-05-01T13:15:53;96869.00;;;14.60
8227;BMP180;4154;48.810;9.012;2023-05-01T13:18:19;96877.00;;;14.60
8227;BMP180;4154;48.810;9.012;2023-05-01T13:20:45;96873.00;;;14.70
8227;BMP180;4154;48.810;9.012;2023-05-01T13:23:11;96869.00;;;14.70
8227;BMP180;4154;48.810;9.012;2023-05-01T13:25:39;96873.00;;;14.60
8227;BMP180;4154;48.810;9.012;2023-05-01T13:28:06;96869.00;;;14.60
8227;BMP180;4154;48.810;9.012;2023-05-01T13:30:33;96870.00;;;14.60
8227;BMP180;4154;48.810;9.012;2023-05-01T13:32:59;96870.00;;;14.70
8227;BMP180;4154;48.810;9.012;2023-05-01T13:35:27;96860.00;;;14.70
8227;BMP180;4154;48.810;9.012;2023-05-01T13:37:53;96867.00;;;14.80
8227;BMP180;4154;48.810;9.012;2023-05-01T13:40:19;96867.00;;;14.80
8227;BMP180;4154;48.810;9.012;2023-05-01T13:42:46;96868.00;;;14.80
8227;BMP180;4154;48.810;9.012;2023-05-01T13:45:17;96862.00;;;14.70
8227;BMP180;4154;48.810;9.012;2023-05-01T13:47:44;96857.00;;;14.70
8227;BMP180;4154;48.810;9.012;2023-05-01T13:50:13;96850.00;;;14.70
8227;BMP180;4154;48.810;9.012;2023-05-01T13:52:43;96855.00;;;14.80
8227;BMP180;4154;48.810;9.012;2023-05-01T13:55:10;96856.00;;;14.80
8227;BMP180;4154;48.810;9.012;2023-05-01T13:57:38;96853.00;;;14.90
8227;BMP180;4154;48.810;9.012;2023-05-01T14:00:13;96855.00;;;15.10
8227;BMP180;4154;48.810;9.012;2023-05-01T14:02:45;96851.00;;;15.10
8227;BMP180;4154;48.810;9.012;2023-05-01T14:05:11;96850.00;;;15.20
8227;BMP180;4154;48.810;9.012;2023-05-01T14:07:49;96844.00;;;15.40
8227;BMP180;4154;48.810;9.012;2023-05-01T14:10:17;96840.00;;;15.60
8227;BMP180;4154;48.810;9.012;2023-05-01T14:12:44;96837.00;;;15.60
8227;BMP180;4154;48.810;9.012;2023-05-01T14:15:11;96835.00;;;15.80
8227;BMP180;4154;48.810;9.012;2023-05-01T14:17:37;96831.00;;;16.00
8227;BMP180;4154;48.810;9.012;2023-05-01T14:20:04;96828.00;;;16.20
8227;BMP180;4154;48.810;9.012;2023-05-01T14:25:19;96831.00;;;16.60
8227;BMP180;4154;48.810;9.012;2023-05-01T14:27:46;96839.00;;;16.60
8227;BMP180;4154;48.810;9.012;2023-05-01T14:30:28;96830.00;;;16.50
8227;BMP180;4154;48.810;9.012;2023-05-01T14:33:02;96844.00;;;16.40
8227;BMP180;4154;48.810;9.012;2023-05-01T14:35:28;96831.00;;;16.20
8227;BMP180;4154;48.810;9.012;2023-05-01T14:37:54;96838.00;;;16.00
8227;BMP180;4154;48.810;9.012;2023-05-01T14:40:26;96853.00;;;15.90
8227;BMP180;4154;48.810;9.012;2023-05-01T14:42:53;96853.00;;;15.80
8227;BMP180;4154;48.810;9.012;2023-05-01T14:45:20;96850.00;;;15.70
8227;BMP180;4154;48.810;9.012;2023-05-01T14:47:47;96857.00;;;15.60
8227;BMP180;4154;48.810;9.012;2023-05-01T14:50:21;96858.00;;;15.60
8227;BMP180;4154;48.810;9.012;2023-05-01T14:52:59;96863.00;;;15.50
8227;BMP180;4154;48.810;9.012;2023-05-01T14:55:30;96871.00;;;15.40
8227;BMP180;4154;48.810;9.012;2023-05-01T14:58:00;96868.00;;;15.30
8227;BMP180;4154;48.810;9.012;2023-05-01T15:00:26;96868.00;;;15.30
8227;BMP180;4154;48.810;9.012;2023-05-01T15:02:53;96874.00;;;15.30
8227;BMP180;4154;48.810;9.012;2023-05-01T15:05:20;96871.00;;;15.30
8227;BMP180;4154;48.810;9.012;2023-05-01T15:07:46;96878.00;;;15.20
8227;BMP180;4154;48.810;9.012;2023-05-01T15:10:12;96872.00;;;15.20
8227;BMP180;4154;48.810;9.012;2023-05-01T15:12:37;96872.00;;;15.30
8227;BMP180;4154;48.810;9.012;2023-05-01T15:15:04;96869.00;;;15.20
8227;BMP180;4154;48.810;9.012;2023-05-01T15:17:30;96873.00;;;15.20
8227;BMP180;4154;48.810;9.012;2023-05-01T15:19:56;96869.00;;;15.30